createdAt,value
2018-09-04T00:00:06.666Z,4.80
2018-09-04T00:02:08.954Z,4.53
2018-09-04T00:04:11.206Z,4.72
2018-09-04T00:06:13.454Z,4.95
2018-09-04T00:08:15.756Z,4.95
2018-09-04T00:10:17.998Z,5.10
2018-09-04T00:12:20.273Z,4.40
2018-09-04T00:14:22.528Z,4.65
2018-09-04T00:16:24.773Z,4.55
2018-09-04T00:18:27.057Z,4.92
2018-09-04T00:20:29.328Z,4.72
2018-09-04T00:22:31.624Z,5.03
2018-09-04T00:24:33.883Z,4.53
2018-09-04T00:26:36.186Z,4.10
2018-09-04T00:28:38.485Z,4.60
2018-09-04T00:30:40.776Z,4.85
2018-09-04T00:32:43.035Z,5.15
2018-09-04T00:34:45.311Z,4.70
2018-09-04T00:36:47.568Z,4.58
2018-09-04T00:38:49.863Z,4.60
2018-09-04T00:40:52.146Z,4.87
2018-09-04T00:42:54.438Z,5.25
2018-09-04T00:44:56.720Z,4.55
2018-09-04T00:46:58.979Z,5.00
2018-09-04T00:49:01.272Z,5.42
2018-09-04T00:51:03.568Z,4.58
2018-09-04T00:53:05.789Z,4.58
2018-09-04T00:55:08.092Z,4.55
2018-09-04T00:57:10.352Z,4.75
2018-09-04T00:59:12.614Z,5.08
2018-09-04T01:01:14.882Z,4.80
2018-09-04T01:03:17.157Z,4.97
2018-09-04T01:05:19.447Z,5.20
2018-09-04T01:07:21.708Z,4.87
2018-09-04T01:09:23.953Z,4.40
2018-09-04T01:11:26.243Z,5.20
2018-09-04T01:13:28.496Z,4.20
2018-09-04T01:15:30.748Z,4.55
2018-09-04T01:17:33.035Z,4.50
2018-09-04T01:19:35.322Z,5.20
2018-09-04T01:21:37.605Z,5.10
2018-09-04T01:23:39.912Z,5.28
2018-09-04T01:25:42.175Z,5.42
2018-09-04T01:27:44.435Z,5.25
2018-09-04T01:29:46.705Z,5.70
2018-09-04T01:31:48.963Z,5.30
2018-09-04T01:33:51.245Z,5.10
2018-09-04T01:35:53.500Z,5.08
2018-09-04T01:37:55.785Z,5.05
2018-09-04T01:39:58.047Z,4.97
2018-09-04T01:42:00.302Z,4.85
2018-09-04T01:44:02.579Z,5.05
2018-09-04T01:46:04.892Z,4.95
2018-09-04T01:48:07.153Z,5.22
2018-09-04T01:50:09.448Z,5.65
2018-09-04T01:52:11.737Z,5.25
2018-09-04T01:54:14.007Z,4.65
2018-09-04T01:56:16.323Z,5.00
2018-09-04T01:58:18.609Z,5.10
2018-09-04T02:00:20.852Z,5.50
2018-09-04T02:02:23.153Z,5.33
2018-09-04T02:04:25.423Z,5.08
2018-09-04T02:06:27.705Z,5.40
2018-09-04T02:08:29.976Z,5.35
2018-09-04T02:10:32.269Z,5.25
2018-09-04T02:12:34.527Z,5.00
2018-09-04T02:14:36.767Z,5.60
2018-09-04T02:16:39.057Z,5.08
2018-09-04T02:18:41.304Z,5.25
2018-09-04T02:20:43.589Z,5.62
2018-09-04T02:22:45.871Z,4.87
2018-09-04T02:24:48.120Z,4.90
2018-09-04T02:26:50.413Z,5.00
2018-09-04T02:28:52.682Z,5.37
2018-09-04T02:30:54.946Z,4.85
2018-09-04T02:32:57.307Z,5.90
2018-09-04T02:34:59.510Z,5.37
2018-09-04T02:37:02.161Z,5.37
2018-09-04T02:39:04.450Z,5.40
2018-09-04T02:41:06.712Z,5.05
2018-09-04T02:43:09.025Z,5.37
2018-09-04T02:45:11.285Z,6.00
2018-09-04T02:47:13.541Z,5.60
2018-09-04T02:49:15.837Z,5.17
2018-09-04T02:51:18.089Z,5.35
2018-09-04T02:53:20.385Z,5.37
2018-09-04T02:55:22.654Z,5.37
2018-09-04T02:57:24.918Z,4.97
2018-09-04T02:59:27.217Z,5.67
2018-09-04T03:01:29.485Z,5.12
2018-09-04T03:03:31.813Z,5.33
2018-09-04T03:05:34.059Z,5.03
2018-09-04T03:07:36.331Z,5.78
2018-09-04T03:09:38.604Z,5.05
2018-09-04T03:11:40.863Z,4.62
2018-09-04T03:13:43.197Z,4.80
2018-09-04T03:15:45.536Z,4.55
2018-09-04T03:17:47.781Z,4.95
2018-09-04T03:19:50.069Z,4.95
2018-09-04T03:21:52.353Z,5.28
2018-09-04T03:23:54.648Z,5.12
2018-09-04T03:25:56.938Z,5.08
2018-09-04T03:27:59.217Z,5.05
2018-09-04T03:30:01.479Z,5.17
2018-09-04T03:32:03.766Z,5.05
2018-09-04T03:34:06.048Z,5.00
2018-09-04T03:36:08.317Z,5.05
2018-09-04T03:38:10.586Z,5.85
2018-09-04T03:40:12.891Z,5.15
2018-09-04T03:42:15.185Z,4.60
2018-09-04T03:44:17.463Z,4.97
2018-09-04T03:46:19.698Z,5.53
2018-09-04T03:48:22.002Z,5.37
2018-09-04T03:50:24.284Z,5.58
2018-09-04T03:52:26.631Z,4.92
2018-09-04T03:54:28.828Z,5.37
2018-09-04T03:56:31.094Z,4.97
2018-09-04T03:58:33.394Z,5.03
2018-09-04T04:00:36.107Z,5.30
2018-09-04T04:02:38.395Z,5.05
2018-09-04T04:04:40.685Z,5.15
2018-09-04T04:06:42.987Z,5.40
2018-09-04T04:08:45.252Z,5.25
2018-09-04T04:10:47.551Z,5.03
2018-09-04T04:12:49.827Z,5.00
2018-09-04T04:14:52.116Z,4.53
2018-09-04T04:16:54.374Z,4.58
2018-09-04T04:18:56.631Z,5.15
2018-09-04T04:20:58.934Z,5.05
2018-09-04T04:23:01.180Z,4.70
2018-09-04T04:25:03.440Z,5.05
2018-09-04T04:27:05.721Z,4.97
2018-09-04T04:29:07.981Z,5.35
2018-09-04T04:31:10.232Z,4.97
2018-09-04T04:33:12.530Z,4.70
2018-09-04T04:35:15.174Z,5.72
2018-09-04T04:37:17.450Z,4.37
2018-09-04T04:39:19.738Z,4.90
2018-09-04T04:41:22.016Z,4.85
2018-09-04T04:43:24.273Z,5.10
2018-09-04T04:45:26.505Z,5.25
2018-09-04T04:47:28.804Z,5.30
2018-09-04T04:49:31.062Z,5.30
2018-09-04T04:51:33.333Z,5.33
2018-09-04T04:53:35.606Z,5.25
2018-09-04T04:55:37.895Z,4.67
2018-09-04T04:57:40.152Z,4.95
2018-09-04T04:59:42.427Z,5.45
2018-09-04T05:01:44.721Z,5.05
2018-09-04T05:03:46.998Z,5.95
2018-09-04T05:05:49.265Z,4.53
2018-09-04T05:07:51.535Z,5.40
2018-09-04T05:09:53.815Z,4.85
2018-09-04T05:11:56.132Z,5.25
2018-09-04T05:13:58.382Z,4.95
2018-09-04T05:16:00.647Z,4.80
2018-09-04T05:18:02.988Z,4.90
2018-09-04T05:20:05.245Z,5.10
2018-09-04T05:22:07.511Z,5.50
2018-09-04T05:24:09.805Z,4.95
2018-09-04T05:26:12.113Z,5.85
2018-09-04T05:28:14.376Z,4.83
2018-09-04T05:30:16.683Z,6.00
2018-09-04T05:32:18.949Z,4.87
2018-09-04T05:34:21.225Z,4.97
2018-09-04T05:36:23.503Z,5.35
2018-09-04T05:38:25.775Z,4.72
2018-09-04T05:40:28.084Z,4.50
2018-09-04T05:42:30.395Z,5.03
2018-09-04T05:44:32.658Z,4.97
2018-09-04T05:46:34.896Z,4.92
2018-09-04T05:48:37.219Z,4.75
2018-09-04T05:50:39.470Z,5.00
2018-09-04T05:52:41.732Z,4.92
2018-09-04T05:54:44.026Z,4.92
2018-09-04T05:56:46.269Z,4.62
2018-09-04T05:58:48.540Z,5.00
2018-09-04T06:00:50.846Z,4.62
2018-09-04T06:02:53.146Z,4.58
2018-09-04T06:04:55.434Z,5.10
2018-09-04T06:06:57.697Z,5.08
2018-09-04T06:08:59.940Z,5.12
2018-09-04T06:11:02.230Z,4.95
2018-09-04T06:13:04.531Z,5.03
2018-09-04T06:15:06.779Z,4.58
2018-09-04T06:17:09.038Z,4.60
2018-09-04T06:19:11.345Z,5.00
2018-09-04T06:21:13.608Z,4.33
2018-09-04T06:23:15.862Z,5.28
2018-09-04T06:25:18.149Z,4.50
2018-09-04T06:27:20.403Z,5.10
2018-09-04T06:29:22.779Z,4.42
2018-09-04T06:31:25.016Z,4.90
2018-09-04T06:33:27.253Z,4.40
2018-09-04T06:35:29.553Z,4.87
2018-09-04T06:37:31.837Z,5.20
2018-09-04T06:39:34.065Z,4.45
2018-09-04T06:41:36.373Z,4.33
2018-09-04T06:43:38.621Z,4.47
2018-09-04T06:45:40.871Z,4.60
2018-09-04T06:47:43.157Z,4.50
2018-09-04T06:49:45.430Z,4.67
2018-09-04T06:51:47.684Z,5.00
2018-09-04T06:53:49.982Z,4.78
2018-09-04T06:55:52.657Z,4.92
2018-09-04T06:57:54.932Z,4.70
2018-09-04T06:59:57.222Z,4.58
2018-09-04T07:01:59.463Z,4.03
2018-09-04T07:04:01.766Z,4.85
2018-09-04T07:06:04.526Z,4.75
2018-09-04T07:08:06.666Z,4.67
2018-09-04T07:10:08.959Z,4.03
2018-09-04T07:12:11.230Z,5.10
2018-09-04T07:14:13.511Z,4.33
2018-09-04T07:16:15.813Z,4.37
2018-09-04T07:18:18.115Z,4.28
2018-09-04T07:20:20.372Z,4.25
2018-09-04T07:22:22.662Z,4.70
2018-09-04T07:24:24.931Z,4.90
2018-09-04T07:26:27.236Z,4.35
2018-09-04T07:28:29.526Z,4.05
2018-09-04T07:30:31.816Z,3.77
2018-09-04T07:32:34.095Z,4.75
2018-09-04T07:34:36.401Z,6.58
2018-09-04T07:36:38.662Z,7.75
2018-09-04T07:38:40.915Z,9.93
2018-09-04T07:40:43.182Z,9.55
2018-09-04T07:42:45.479Z,8.83
2018-09-04T07:44:47.751Z,9.83
2018-09-04T07:46:50.019Z,12.25
2018-09-04T07:48:52.340Z,8.10
2018-09-04T07:50:54.616Z,12.05
2018-09-04T07:52:56.879Z,11.83
2018-09-04T07:54:59.165Z,11.65
2018-09-04T07:57:01.429Z,10.98
2018-09-04T07:59:03.728Z,10.03
2018-09-04T08:01:06.032Z,12.78
2018-09-04T08:03:08.297Z,11.30
2018-09-04T08:05:10.585Z,10.93
2018-09-04T08:07:12.830Z,11.03
2018-09-04T08:09:15.094Z,7.92
2018-09-04T08:11:17.408Z,9.78
2018-09-04T08:13:19.641Z,7.97
2018-09-04T08:15:21.946Z,7.45
2018-09-04T08:17:24.226Z,6.72
2018-09-04T08:19:26.492Z,7.10
2018-09-04T08:21:28.738Z,8.93
2018-09-04T08:23:31.023Z,7.90
2018-09-04T08:25:33.276Z,7.62
2018-09-04T08:27:35.554Z,7.45
2018-09-04T08:29:37.849Z,6.65
2018-09-04T08:31:40.113Z,6.95
2018-09-04T08:33:42.414Z,7.83
2018-09-04T08:35:44.659Z,9.65
2018-09-04T08:37:46.968Z,6.12
2018-09-04T08:39:49.235Z,6.67
2018-09-04T08:41:51.489Z,6.85
2018-09-04T08:43:53.781Z,5.37
2018-09-04T08:45:56.092Z,6.53
2018-09-04T08:47:58.362Z,7.28
2018-09-04T08:50:00.710Z,6.55
2018-09-04T08:52:03.008Z,5.95
2018-09-04T08:54:05.283Z,6.83
2018-09-04T08:56:07.548Z,5.62
2018-09-04T08:58:09.846Z,5.92
2018-09-04T09:00:12.100Z,6.55
2018-09-04T09:02:14.376Z,4.97
2018-09-04T09:04:16.634Z,5.65
2018-09-04T09:06:18.916Z,6.08
2018-09-04T09:08:21.240Z,6.15
2018-09-04T09:10:23.552Z,5.85
2018-09-04T09:12:25.834Z,6.42
2018-09-04T09:14:28.154Z,6.08
2018-09-04T09:16:30.436Z,6.17
2018-09-04T09:18:32.702Z,5.37
2018-09-04T09:20:34.968Z,5.17
2018-09-04T09:22:37.253Z,5.12
2018-09-04T09:24:39.556Z,6.22
2018-09-04T09:26:41.820Z,5.97
2018-09-04T09:28:44.113Z,5.20
2018-09-04T09:30:46.380Z,5.30
2018-09-04T09:32:48.651Z,5.30
2018-09-04T09:34:50.974Z,4.58
2018-09-04T09:36:53.406Z,5.37
2018-09-04T09:38:55.575Z,5.45
2018-09-04T09:40:57.802Z,5.10
2018-09-04T09:43:00.077Z,5.30
2018-09-04T09:45:02.344Z,5.65
2018-09-04T09:47:04.602Z,5.87
2018-09-04T09:49:06.860Z,5.10
2018-09-04T09:51:09.136Z,4.60
2018-09-04T09:53:11.444Z,5.20
2018-09-04T09:55:13.738Z,5.53
2018-09-04T09:57:16.012Z,5.70
2018-09-04T09:59:18.292Z,5.17
2018-09-04T10:01:20.552Z,5.33
2018-09-04T10:03:22.870Z,5.05
2018-09-04T10:05:25.196Z,5.60
2018-09-04T10:07:27.549Z,4.90
2018-09-04T10:09:29.764Z,4.80
2018-09-04T10:11:32.069Z,6.15
2018-09-04T10:13:34.384Z,5.25
2018-09-04T10:15:36.646Z,5.08
2018-09-04T10:17:38.934Z,4.78
2018-09-04T10:19:41.238Z,5.40
2018-09-04T10:21:43.518Z,5.53
2018-09-04T10:23:45.789Z,4.78
2018-09-04T10:25:48.040Z,4.55
2018-09-04T10:27:50.296Z,5.42
2018-09-04T10:29:52.588Z,5.03
2018-09-04T10:31:54.894Z,5.60
2018-09-04T10:33:57.149Z,5.15
2018-09-04T10:35:59.421Z,5.15
2018-09-04T10:38:01.722Z,4.90
2018-09-04T10:40:04.006Z,4.75
2018-09-04T10:42:06.366Z,4.80
2018-09-04T10:44:08.638Z,4.70
2018-09-04T10:46:10.870Z,4.80
2018-09-04T10:48:13.171Z,4.17
2018-09-04T10:50:15.432Z,5.08
2018-09-04T10:52:17.741Z,4.95
2018-09-04T10:54:20.005Z,4.30
2018-09-04T10:56:22.278Z,4.62
2018-09-04T10:58:24.592Z,4.85
2018-09-04T11:00:26.847Z,5.03
2018-09-04T11:02:29.145Z,5.05
2018-09-04T11:04:31.388Z,4.50
2018-09-04T11:06:33.681Z,5.17
2018-09-04T11:08:35.965Z,4.95
2018-09-04T11:10:38.237Z,4.97
2018-09-04T11:12:40.540Z,5.22
2018-09-04T11:14:42.803Z,4.62
2018-09-04T11:16:45.068Z,4.72
2018-09-04T11:18:47.375Z,4.87
2018-09-04T11:20:49.658Z,5.12
2018-09-04T11:22:51.937Z,5.78
2018-09-04T11:24:54.200Z,5.65
2018-09-04T11:26:56.476Z,5.33
2018-09-04T11:28:58.763Z,5.47
2018-09-04T11:31:01.024Z,4.22
2018-09-04T11:33:03.321Z,4.72
2018-09-04T11:35:05.577Z,4.53
2018-09-04T11:37:07.867Z,5.45
2018-09-04T11:39:10.113Z,4.80
2018-09-04T11:41:12.363Z,4.75
2018-09-04T11:43:14.663Z,4.58
2018-09-04T11:45:16.936Z,4.53
2018-09-04T11:47:19.233Z,4.40
2018-09-04T11:49:21.511Z,4.80
2018-09-04T11:51:23.820Z,4.30
2018-09-04T11:53:26.107Z,5.22
2018-09-04T11:55:28.383Z,4.25
2018-09-04T11:57:30.663Z,4.85
2018-09-04T11:59:32.962Z,4.85
2018-09-04T12:01:35.273Z,4.35
2018-09-04T12:03:37.528Z,4.67
2018-09-04T12:05:39.872Z,3.95
2018-09-04T12:07:42.123Z,4.85
2018-09-04T12:09:44.373Z,4.08
2018-09-04T12:11:46.719Z,4.03
2018-09-04T12:13:48.979Z,3.90
2018-09-04T12:15:51.249Z,5.00
2018-09-04T12:17:53.555Z,4.83
2018-09-04T12:19:55.820Z,4.70
2018-09-04T12:21:58.053Z,4.53
2018-09-04T12:24:00.363Z,4.58
2018-09-04T12:26:02.625Z,4.50
2018-09-04T12:28:04.900Z,4.20
2018-09-04T12:30:08.106Z,5.05
2018-09-04T12:32:10.419Z,4.67
2018-09-04T12:34:12.695Z,4.28
2018-09-04T12:36:14.945Z,4.05
2018-09-04T12:38:17.241Z,4.53
2018-09-04T12:40:19.555Z,4.05
2018-09-04T12:42:21.815Z,4.65
2018-09-04T12:44:24.145Z,5.12
2018-09-04T12:46:26.388Z,4.42
2018-09-04T12:48:28.677Z,5.33
2018-09-04T12:50:30.943Z,4.40
2018-09-04T12:52:33.264Z,4.58
2018-09-04T12:54:35.593Z,4.50
2018-09-04T12:56:37.871Z,4.50
2018-09-04T12:58:40.133Z,4.20
2018-09-04T13:00:42.410Z,4.42
2018-09-04T13:02:44.707Z,4.58
2018-09-04T13:04:46.955Z,4.72
2018-09-04T13:06:49.233Z,4.60
2018-09-04T13:08:51.565Z,4.50
2018-09-04T13:10:53.801Z,4.20
2018-09-04T13:12:56.055Z,4.80
2018-09-04T13:14:58.359Z,4.90
2018-09-04T13:17:00.644Z,4.17
2018-09-04T13:19:02.934Z,4.55
2018-09-04T13:21:05.226Z,4.45
2018-09-04T13:23:07.543Z,4.17
2018-09-04T13:25:09.821Z,3.62
2018-09-04T13:27:12.125Z,5.00
2018-09-04T13:29:14.392Z,4.45
2018-09-04T13:31:16.660Z,4.65
2018-09-04T13:33:18.912Z,4.90
2018-09-04T13:35:21.202Z,4.83
2018-09-04T13:37:23.497Z,4.58
2018-09-04T13:39:25.769Z,4.33
2018-09-04T13:41:28.060Z,4.28
2018-09-04T13:43:30.366Z,4.40
2018-09-04T13:45:33.749Z,4.92
2018-09-04T13:47:36.025Z,4.83
2018-09-04T13:49:38.535Z,4.40
2018-09-04T13:51:40.584Z,4.83
2018-09-04T13:53:42.909Z,4.80
2018-09-04T13:55:45.157Z,5.85
2018-09-04T13:57:47.406Z,5.30
2018-09-04T13:59:49.700Z,5.10
2018-09-04T14:01:51.980Z,4.72
2018-09-04T14:03:54.240Z,5.00
2018-09-04T14:05:56.536Z,4.40
2018-09-04T14:07:58.780Z,4.50
2018-09-04T14:10:01.051Z,4.87
2018-09-04T14:12:03.307Z,4.40
2018-09-04T14:14:05.631Z,5.28
2018-09-04T14:16:07.883Z,5.40
2018-09-04T14:18:10.123Z,5.05
2018-09-04T14:20:12.433Z,5.22
2018-09-04T14:22:14.698Z,5.00
2018-09-04T14:24:17.004Z,4.90
2018-09-04T14:26:19.274Z,5.12
2018-09-04T14:28:40.976Z,4.85
2018-09-04T14:30:23.876Z,4.65
2018-09-04T14:32:26.092Z,4.70
2018-09-04T14:34:28.386Z,4.92
2018-09-04T14:36:30.700Z,4.75
2018-09-04T14:38:32.896Z,4.75
2018-09-04T14:40:35.210Z,5.45
2018-09-04T14:42:37.475Z,5.22
2018-09-04T14:44:39.774Z,5.50
2018-09-04T14:46:42.014Z,5.40
2018-09-04T14:48:44.318Z,6.20
2018-09-04T14:50:46.600Z,4.67
2018-09-04T14:52:48.888Z,5.47
2018-09-04T14:54:51.127Z,4.78
2018-09-04T14:56:53.479Z,5.08
2018-09-04T14:58:55.726Z,4.47
2018-09-04T15:00:58.036Z,5.30
2018-09-04T15:03:00.314Z,4.83
2018-09-04T15:05:02.598Z,5.72
2018-09-04T15:07:04.891Z,5.62
2018-09-04T15:09:07.112Z,5.22
2018-09-04T15:11:09.418Z,5.37
2018-09-04T15:13:11.694Z,4.10
2018-09-04T15:15:13.941Z,4.28
2018-09-04T15:17:16.248Z,5.72
2018-09-04T15:19:18.589Z,5.37
2018-09-04T15:21:20.872Z,4.83
2018-09-04T15:23:23.137Z,4.87
2018-09-04T15:25:25.448Z,4.85
2018-09-04T15:27:27.685Z,4.47
2018-09-04T15:29:29.972Z,5.00
2018-09-04T15:31:32.307Z,5.47
2018-09-04T15:33:34.588Z,5.00
2018-09-04T15:35:36.851Z,5.40
2018-09-04T15:37:39.155Z,4.95
2018-09-04T15:39:41.443Z,5.97
2018-09-04T15:41:43.680Z,4.70
2018-09-04T15:43:45.980Z,5.47
2018-09-04T15:45:48.304Z,4.58
2018-09-04T15:47:50.558Z,4.75
2018-09-04T15:49:52.820Z,4.72
2018-09-04T15:51:55.084Z,5.20
2018-09-04T15:53:57.378Z,4.33
2018-09-04T15:55:59.685Z,5.00
2018-09-04T15:58:02.002Z,4.72
2018-09-04T16:00:04.293Z,5.35
2018-09-04T16:02:06.514Z,5.28
2018-09-04T16:04:08.811Z,4.60
2018-09-04T16:06:11.095Z,4.83
2018-09-04T16:08:13.401Z,5.08
2018-09-04T16:10:15.745Z,4.80
2018-09-04T16:12:18.444Z,4.45
2018-09-04T16:14:20.721Z,4.90
2018-09-04T16:16:22.959Z,4.58
2018-09-04T16:18:25.250Z,5.35
2018-09-04T16:20:27.567Z,5.90
2018-09-04T16:22:29.863Z,5.25
2018-09-04T16:24:32.211Z,4.47
2018-09-04T16:26:34.469Z,4.45
2018-09-04T16:28:36.739Z,5.45
2018-09-04T16:30:39.019Z,4.80
2018-09-04T16:32:41.307Z,5.55
2018-09-04T16:34:43.624Z,4.90
2018-09-04T16:36:45.875Z,4.47
2018-09-04T16:38:48.165Z,5.35
2018-09-04T16:40:50.527Z,4.90
2018-09-04T16:42:52.824Z,5.15
2018-09-04T16:44:55.084Z,5.20
2018-09-04T16:46:57.326Z,5.35
2018-09-04T16:48:59.609Z,5.40
2018-09-04T16:51:01.879Z,4.40
2018-09-04T16:53:04.147Z,4.65
2018-09-04T16:55:06.407Z,4.50
2018-09-04T16:57:08.710Z,5.35
2018-09-04T16:59:11.009Z,4.35
2018-09-04T17:01:13.272Z,5.00
2018-09-04T17:03:15.598Z,4.47
2018-09-04T17:05:17.882Z,4.60
2018-09-04T17:07:20.137Z,4.80
2018-09-04T17:09:22.390Z,5.17
2018-09-04T17:11:24.685Z,5.53
2018-09-04T17:13:26.952Z,5.10
2018-09-04T17:15:29.249Z,4.75
2018-09-04T17:17:31.488Z,4.58
2018-09-04T17:19:33.786Z,4.50
2018-09-04T17:21:36.056Z,4.95
2018-09-04T17:23:38.376Z,4.83
2018-09-04T17:25:40.652Z,4.55
2018-09-04T17:27:42.941Z,4.37
2018-09-04T17:29:45.196Z,5.17
2018-09-04T17:31:47.504Z,5.05
2018-09-04T17:33:49.798Z,4.37
2018-09-04T17:35:52.061Z,4.50
2018-09-04T17:37:54.361Z,4.70
2018-09-04T17:39:56.634Z,5.20
2018-09-04T17:41:58.889Z,5.12
2018-09-04T17:44:01.197Z,4.80
2018-09-04T17:46:03.497Z,4.65
2018-09-04T17:48:05.787Z,4.45
2018-09-04T17:50:08.061Z,4.40
2018-09-04T17:52:10.369Z,4.70
2018-09-04T17:54:12.652Z,4.85
2018-09-04T17:56:14.930Z,5.00
2018-09-04T17:58:17.216Z,4.85
2018-09-04T18:00:19.478Z,5.17
2018-09-04T18:02:21.769Z,4.80
2018-09-04T18:04:24.030Z,3.90
2018-09-04T18:06:26.311Z,5.00
2018-09-04T18:08:28.577Z,4.90
2018-09-04T18:10:30.843Z,4.47
2018-09-04T18:12:33.158Z,4.17
2018-09-04T18:14:35.485Z,5.25
2018-09-04T18:16:37.812Z,4.80
2018-09-04T18:18:40.063Z,4.50
2018-09-04T18:20:42.309Z,4.28
2018-09-04T18:22:44.609Z,4.67
2018-09-04T18:24:46.876Z,5.00
2018-09-04T18:26:49.166Z,4.30
2018-09-04T18:28:51.476Z,4.50
2018-09-04T18:30:53.766Z,4.30
2018-09-04T18:32:56.062Z,3.92
2018-09-04T18:34:58.347Z,4.90
2018-09-04T18:37:00.629Z,4.83
2018-09-04T18:39:02.944Z,4.72
2018-09-04T18:41:05.240Z,4.37
2018-09-04T18:43:07.487Z,5.05
2018-09-04T18:45:09.786Z,4.42
2018-09-04T18:47:12.051Z,4.35
2018-09-04T18:49:14.343Z,4.12
2018-09-04T18:51:16.636Z,5.00
2018-09-04T18:53:18.931Z,5.00
2018-09-04T18:55:21.246Z,4.47
2018-09-04T18:57:23.519Z,4.62
2018-09-04T18:59:25.855Z,4.87
2018-09-04T19:01:28.096Z,4.70
2018-09-04T19:03:30.378Z,5.50
2018-09-04T19:05:32.642Z,5.03
2018-09-04T19:07:34.947Z,4.05
2018-09-04T19:09:37.249Z,4.92
2018-09-04T19:11:39.516Z,4.97
2018-09-04T19:13:41.820Z,4.83
2018-09-04T19:15:44.138Z,4.55
2018-09-04T19:17:46.466Z,4.85
2018-09-04T19:19:48.732Z,5.08
2018-09-04T19:21:51.048Z,5.05
2018-09-04T19:23:53.335Z,4.55
2018-09-04T19:25:55.620Z,4.97
2018-09-04T19:27:57.862Z,5.15
2018-09-04T19:30:00.176Z,4.65
2018-09-04T19:32:02.427Z,4.20
2018-09-04T19:34:04.742Z,4.15
2018-09-04T19:36:07.025Z,5.60
2018-09-04T19:38:09.306Z,4.70
2018-09-04T19:40:11.593Z,4.67
2018-09-04T19:42:13.856Z,4.45
2018-09-04T19:44:16.136Z,4.20
2018-09-04T19:46:18.468Z,4.80
2018-09-04T19:48:20.719Z,4.92
2018-09-04T19:50:23.006Z,4.60
2018-09-04T19:52:25.299Z,4.10
2018-09-04T19:54:27.576Z,4.03
2018-09-04T19:56:29.830Z,3.95
2018-09-04T19:58:32.077Z,4.67
2018-09-04T20:00:34.368Z,4.35
2018-09-04T20:02:36.695Z,4.25
2018-09-04T20:04:38.948Z,4.55
2018-09-04T20:06:41.247Z,3.95
2018-09-04T20:08:43.559Z,4.80
2018-09-04T20:10:45.825Z,4.10
2018-09-04T20:12:48.092Z,4.65
2018-09-04T20:14:50.399Z,4.47
2018-09-04T20:16:52.699Z,4.20
2018-09-04T20:18:54.936Z,4.90
2018-09-04T20:20:57.237Z,4.37
2018-09-04T20:22:59.508Z,4.60
2018-09-04T20:25:01.817Z,4.17
2018-09-04T20:27:04.123Z,4.55
2018-09-04T20:29:06.384Z,4.70
2018-09-04T20:31:08.693Z,4.05
2018-09-04T20:33:10.980Z,4.33
2018-09-04T20:35:13.243Z,4.05
2018-09-04T20:37:15.538Z,3.80
2018-09-04T20:39:17.793Z,4.20
2018-09-04T20:41:20.107Z,4.22
2018-09-04T20:43:22.378Z,4.53
2018-09-04T20:45:24.646Z,3.70
2018-09-04T20:47:26.913Z,4.75
2018-09-04T20:49:29.213Z,4.22
2018-09-04T20:51:31.504Z,4.35
2018-09-04T20:53:33.774Z,4.10
2018-09-04T20:55:36.064Z,4.40
2018-09-04T20:57:38.376Z,4.70
2018-09-04T20:59:40.711Z,3.85
2018-09-04T21:01:42.967Z,4.28
2018-09-04T21:03:45.286Z,4.30
2018-09-04T21:05:47.551Z,4.05
2018-09-04T21:07:49.833Z,4.72
2018-09-04T21:09:52.089Z,3.95
2018-09-04T21:11:54.393Z,4.62
2018-09-04T21:13:56.639Z,4.10
2018-09-04T21:15:58.950Z,4.10
2018-09-04T21:18:01.261Z,3.33
2018-09-04T21:20:03.535Z,4.50
2018-09-04T21:22:05.822Z,4.30
2018-09-04T21:24:08.075Z,4.33
2018-09-04T21:26:10.322Z,4.00
2018-09-04T21:28:12.619Z,4.72
2018-09-04T21:30:14.879Z,4.45
2018-09-04T21:32:17.144Z,5.08
2018-09-04T21:34:19.457Z,3.95
2018-09-04T21:36:21.712Z,4.30
2018-09-04T21:38:24.009Z,4.17
2018-09-04T21:40:26.263Z,8.98
2018-09-04T21:42:28.559Z,3.75
2018-09-04T21:44:30.843Z,4.03
2018-09-04T21:46:33.099Z,4.10
2018-09-04T21:48:35.364Z,3.98
2018-09-04T21:50:37.662Z,4.30
2018-09-04T21:52:39.903Z,4.12
2018-09-04T21:54:42.214Z,4.10
2018-09-04T21:56:44.462Z,3.83
2018-09-04T21:58:46.741Z,3.92
2018-09-04T22:00:49.035Z,4.40
2018-09-04T22:02:51.338Z,4.55
2018-09-04T22:04:53.648Z,3.70
2018-09-04T22:06:55.923Z,3.92
2018-09-04T22:08:58.199Z,4.22
2018-09-04T22:11:00.497Z,4.03
2018-09-04T22:13:02.830Z,4.15
2018-09-04T22:15:05.090Z,3.87
2018-09-04T22:17:07.369Z,4.20
2018-09-04T22:19:09.652Z,4.17
2018-09-04T22:21:11.911Z,3.92
2018-09-04T22:23:14.164Z,4.40
2018-09-04T22:25:16.471Z,3.77
2018-09-04T22:27:18.726Z,3.70
2018-09-04T22:29:20.983Z,4.25
2018-09-04T22:31:23.247Z,3.90
2018-09-04T22:33:25.515Z,4.00
2018-09-04T22:35:27.762Z,4.45
2018-09-04T22:37:30.050Z,4.33
2018-09-04T22:39:32.302Z,3.77
2018-09-04T22:41:34.577Z,3.72
2018-09-04T22:43:36.870Z,3.80
2018-09-04T22:45:39.120Z,3.65
2018-09-04T22:47:41.418Z,3.80
2018-09-04T22:49:43.671Z,4.58
2018-09-04T22:51:45.929Z,3.83
2018-09-04T22:53:48.212Z,3.90
2018-09-04T22:55:50.477Z,3.17
2018-09-04T22:57:52.731Z,4.10
2018-09-04T22:59:55.005Z,3.33
2018-09-04T23:01:57.275Z,3.52
2018-09-04T23:03:59.529Z,4.17
2018-09-04T23:06:01.815Z,3.67
2018-09-04T23:08:04.133Z,3.92
2018-09-04T23:10:06.406Z,3.42
2018-09-04T23:12:08.650Z,3.60
2018-09-04T23:14:10.969Z,4.03
2018-09-04T23:16:13.238Z,3.77
2018-09-04T23:18:15.532Z,3.95
2018-09-04T23:20:17.772Z,3.52
2018-09-04T23:22:20.051Z,3.70
2018-09-04T23:24:22.312Z,3.67
2018-09-04T23:26:24.636Z,3.80
2018-09-04T23:28:26.906Z,3.35
2018-09-04T23:30:29.164Z,4.28
2018-09-04T23:32:31.463Z,3.27
2018-09-04T23:34:33.715Z,3.80
2018-09-04T23:36:35.960Z,4.00
2018-09-04T23:38:38.242Z,3.70
2018-09-04T23:40:40.489Z,4.08
2018-09-04T23:42:42.779Z,3.55
2018-09-04T23:44:45.039Z,3.60
2018-09-04T23:46:47.328Z,3.98
2018-09-04T23:48:49.604Z,4.15
2018-09-04T23:50:51.901Z,3.60
2018-09-04T23:52:54.190Z,3.30
2018-09-04T23:54:56.474Z,3.98
2018-09-04T23:56:58.754Z,3.30
2018-09-04T23:59:01.054Z,3.58
